sensor_id;sensor_type;location;lat;lon;timestamp;pressure;altitude;pressure_sealevel;temperature;humidity
56689;BME280;42565;53.342;-1.534;2023-04-28T00:01:49;98327.72;;;8.43;76.46
56689;BME280;42565;53.342;-1.534;2023-04-28T00:04:16;98318.21;;;8.77;75.99
56689;BME280;42565;53.342;-1.534;2023-04-28T00:06:44;98318.30;;;7.54;79.80
56689;BME280;42565;53.342;-1.534;2023-04-28T00:09:10;98311.28;;;7.63;79.06
56689;BME280;42565;53.342;-1.534;2023-04-28T00:11:37;98308.19;;;8.54;77.11
56689;BME280;42565;53.342;-1.534;2023-04-28T00:14:04;98299.59;;;8.27;75.89
56689;BME280;42565;53.342;-1.534;2023-04-28T00:16:32;98296.50;;;8.58;76.71
56689;BME280;42565;53.342;-1.534;2023-04-28T00:18:58;98295.69;;;8.56;77.18
56689;BME280;42565;53.342;-1.534;2023-04-28T00:21:25;98292.80;;;8.31;76.59
56689;BME280;42565;53.342;-1.534;2023-04-28T00:23:53;98293.53;;;8.03;78.34
56689;BME280;42565;53.342;-1.534;2023-04-28T00:26:20;98293.47;;;8.15;78.31
56689;BME280;42565;53.342;-1.534;2023-04-28T00:28:47;98292.36;;;8.53;77.47
56689;BME280;42565;53.342;-1.534;2023-04-28T00:31:14;98291.43;;;8.18;77.41
56689;BME280;42565;53.342;-1.534;2023-04-28T00:33:43;98286.94;;;8.53;76.59
56689;BME280;42565;53.342;-1.534;2023-04-28T00:36:10;98290.50;;;8.04;78.18
56689;BME280;42565;53.342;-1.534;2023-04-28T00:38:38;98287.63;;;8.04;78.63
56689;BME280;42565;53.342;-1.534;2023-04-28T00:41:05;98282.24;;;8.06;77.13
56689;BME280;42565;53.342;-1.534;2023-04-28T00:43:42;98277.51;;;8.61;76.68
56689;BME280;42565;53.342;-1.534;2023-04-28T00:46:10;98271.82;;;7.81;78.39
56689;BME280;42565;53.342;-1.534;2023-04-28T00:48:38;98269.05;;;8.54;77.33
56689;BME280;42565;53.342;-1.534;2023-04-28T00:51:05;98265.42;;;8.07;77.51
56689;BME280;42565;53.342;-1.534;2023-04-28T00:53:32;98264.11;;;7.78;79.50
56689;BME280;42565;53.342;-1.534;2023-04-28T00:56:00;98264.61;;;7.84;80.27
56689;BME280;42565;53.342;-1.534;2023-04-28T00:58:28;98264.39;;;7.83;78.93
56689;BME280;42565;53.342;-1.534;2023-04-28T01:01:02;98266.97;;;7.80;79.88
56689;BME280;42565;53.342;-1.534;2023-04-28T01:03:29;98267.65;;;7.22;82.94
56689;BME280;42565;53.342;-1.534;2023-04-28T01:05:57;98265.80;;;7.85;80.05
56689;BME280;42565;53.342;-1.534;2023-04-28T01:08:27;98264.08;;;7.96;80.36
56689;BME280;42565;53.342;-1.534;2023-04-28T01:10:55;98257.75;;;8.56;78.27
56689;BME280;42565;53.342;-1.534;2023-04-28T01:13:23;98252.37;;;8.43;77.58
56689;BME280;42565;53.342;-1.534;2023-04-28T01:15:50;98249.94;;;8.67;76.26
56689;BME280;42565;53.342;-1.534;2023-04-28T01:18:18;98252.04;;;8.65;76.00
56689;BME280;42565;53.342;-1.534;2023-04-28T01:20:45;98249.05;;;8.70;76.50
56689;BME280;42565;53.342;-1.534;2023-04-28T01:23:13;98246.77;;;7.35;80.65
56689;BME280;42565;53.342;-1.534;2023-04-28T01:25:41;98242.20;;;8.28;79.13
56689;BME280;42565;53.342;-1.534;2023-04-28T01:28:10;98240.64;;;8.81;76.01
56689;BME280;42565;53.342;-1.534;2023-04-28T01:30:38;98237.80;;;8.49;77.90
56689;BME280;42565;53.342;-1.534;2023-04-28T01:33:05;98234.32;;;7.90;78.53
56689;BME280;42565;53.342;-1.534;2023-04-28T01:35:32;98230.13;;;8.41;78.30
56689;BME280;42565;53.342;-1.534;2023-04-28T01:38:00;98228.81;;;8.43;78.72
56689;BME280;42565;53.342;-1.534;2023-04-28T01:40:27;98231.52;;;8.23;78.10
56689;BME280;42565;53.342;-1.534;2023-04-28T01:42:54;98234.45;;;8.68;78.05
56689;BME280;42565;53.342;-1.534;2023-04-28T01:45:21;98236.33;;;8.71;76.68
56689;BME280;42565;53.342;-1.534;2023-04-28T01:47:48;98230.63;;;8.92;76.44
56689;BME280;42565;53.342;-1.534;2023-04-28T01:50:15;98225.38;;;8.75;76.95
56689;BME280;42565;53.342;-1.534;2023-04-28T01:52:42;98221.79;;;8.89;76.13
56689;BME280;42565;53.342;-1.534;2023-04-28T01:55:09;98219.76;;;8.80;75.77
56689;BME280;42565;53.342;-1.534;2023-04-28T01:57:37;98216.05;;;8.36;77.08
56689;BME280;42565;53.342;-1.534;2023-04-28T02:00:05;98216.26;;;8.36;76.43
56689;BME280;42565;53.342;-1.534;2023-04-28T02:02:32;98212.29;;;8.98;75.31
56689;BME280;42565;53.342;-1.534;2023-04-28T02:05:00;98214.22;;;8.88;75.84
56689;BME280;42565;53.342;-1.534;2023-04-28T02:07:27;98214.85;;;8.74;76.39
56689;BME280;42565;53.342;-1.534;2023-04-28T02:09:54;98216.62;;;8.15;79.51
56689;BME280;42565;53.342;-1.534;2023-04-28T02:12:21;98214.58;;;8.48;78.88
56689;BME280;42565;53.342;-1.534;2023-04-28T02:14:49;98211.21;;;8.80;76.91
56689;BME280;42565;53.342;-1.534;2023-04-28T02:17:16;98211.88;;;8.35;78.09
56689;BME280;42565;53.342;-1.534;2023-04-28T02:19:43;98213.82;;;8.00;79.52
56689;BME280;42565;53.342;-1.534;2023-04-28T02:22:10;98214.65;;;9.00;76.92
56689;BME280;42565;53.342;-1.534;2023-04-28T02:24:37;98213.52;;;9.14;75.18
56689;BME280;42565;53.342;-1.534;2023-04-28T02:27:04;98213.71;;;8.63;76.50
56689;BME280;42565;53.342;-1.534;2023-04-28T02:29:31;98209.34;;;8.92;76.09
56689;BME280;42565;53.342;-1.534;2023-04-28T02:31:59;98205.91;;;9.18;74.97
56689;BME280;42565;53.342;-1.534;2023-04-28T02:34:27;98206.59;;;9.20;75.06
56689;BME280;42565;53.342;-1.534;2023-04-28T02:36:53;98205.20;;;8.93;75.55
56689;BME280;42565;53.342;-1.534;2023-04-28T02:39:21;98207.25;;;8.72;76.67
56689;BME280;42565;53.342;-1.534;2023-04-28T02:41:48;98199.84;;;8.96;75.74
56689;BME280;42565;53.342;-1.534;2023-04-28T02:44:16;98198.31;;;9.35;75.12
56689;BME280;42565;53.342;-1.534;2023-04-28T02:46:43;98189.83;;;9.04;75.69
56689;BME280;42565;53.342;-1.534;2023-04-28T02:49:10;98194.23;;;8.61;76.77
56689;BME280;42565;53.342;-1.534;2023-04-28T02:51:37;98199.24;;;8.47;77.60
56689;BME280;42565;53.342;-1.534;2023-04-28T02:54:04;98201.17;;;8.75;76.91
56689;BME280;42565;53.342;-1.534;2023-04-28T02:56:32;98198.84;;;9.16;75.53
56689;BME280;42565;53.342;-1.534;2023-04-28T02:58:59;98196.45;;;9.29;74.71
56689;BME280;42565;53.342;-1.534;2023-04-28T03:01:26;98192.61;;;9.18;74.66
56689;BME280;42565;53.342;-1.534;2023-04-28T03:03:54;98191.33;;;8.89;75.18
56689;BME280;42565;53.342;-1.534;2023-04-28T03:06:21;98193.87;;;8.78;76.56
56689;BME280;42565;53.342;-1.534;2023-04-28T03:08:48;98194.36;;;8.89;76.32
56689;BME280;42565;53.342;-1.534;2023-04-28T03:11:15;98193.44;;;8.91;75.69
56689;BME280;42565;53.342;-1.534;2023-04-28T03:13:42;98193.12;;;9.30;74.38
56689;BME280;42565;53.342;-1.534;2023-04-28T03:16:09;98191.60;;;9.49;73.64
56689;BME280;42565;53.342;-1.534;2023-04-28T03:18:36;98188.35;;;9.57;73.17
56689;BME280;42565;53.342;-1.534;2023-04-28T03:21:03;98189.34;;;9.10;73.73
56689;BME280;42565;53.342;-1.534;2023-04-28T03:23:30;98189.38;;;9.59;73.39
56689;BME280;42565;53.342;-1.534;2023-04-28T03:25:57;98187.24;;;9.58;72.96
56689;BME280;42565;53.342;-1.534;2023-04-28T03:28:23;98184.55;;;9.44;72.00
56689;BME280;42565;53.342;-1.534;2023-04-28T03:30:51;98187.54;;;9.64;72.72
56689;BME280;42565;53.342;-1.534;2023-04-28T03:33:17;98186.29;;;9.04;73.63
56689;BME280;42565;53.342;-1.534;2023-04-28T03:35:45;98184.32;;;9.85;72.69
56689;BME280;42565;53.342;-1.534;2023-04-28T03:38:12;98177.79;;;9.52;73.05
56689;BME280;42565;53.342;-1.534;2023-04-28T03:40:39;98174.54;;;9.72;73.01
56689;BME280;42565;53.342;-1.534;2023-04-28T03:43:06;98171.96;;;9.03;73.19
56689;BME280;42565;53.342;-1.534;2023-04-28T03:45:34;98171.08;;;9.22;73.75
56689;BME280;42565;53.342;-1.534;2023-04-28T03:48:01;98169.81;;;9.56;73.88
56689;BME280;42565;53.342;-1.534;2023-04-28T03:50:28;98164.40;;;9.46;73.50
56689;BME280;42565;53.342;-1.534;2023-04-28T03:52:55;98159.92;;;9.79;72.81
56689;BME280;42565;53.342;-1.534;2023-04-28T03:55:22;98156.75;;;9.90;72.58
56689;BME280;42565;53.342;-1.534;2023-04-28T03:57:49;98151.54;;;9.65;72.32
56689;BME280;42565;53.342;-1.534;2023-04-28T04:00:16;98145.77;;;9.72;72.95
56689;BME280;42565;53.342;-1.534;2023-04-28T04:02:43;98139.59;;;9.76;72.82
56689;BME280;42565;53.342;-1.534;2023-04-28T04:05:11;98140.28;;;9.30;72.62
56689;BME280;42565;53.342;-1.534;2023-04-28T04:07:38;98144.24;;;9.91;72.69
56689;BME280;42565;53.342;-1.534;2023-04-28T04:10:06;98155.27;;;9.42;72.12
56689;BME280;42565;53.342;-1.534;2023-04-28T04:12:34;98162.53;;;9.58;73.10
56689;BME280;42565;53.342;-1.534;2023-04-28T04:15:01;98152.17;;;9.58;73.45
56689;BME280;42565;53.342;-1.534;2023-04-28T04:17:28;98155.48;;;9.23;73.52
56689;BME280;42565;53.342;-1.534;2023-04-28T04:19:55;98161.32;;;9.44;73.69
56689;BME280;42565;53.342;-1.534;2023-04-28T04:22:22;98168.68;;;9.84;72.44
56689;BME280;42565;53.342;-1.534;2023-04-28T04:24:49;98168.23;;;10.36;71.30
56689;BME280;42565;53.342;-1.534;2023-04-28T04:27:16;98168.18;;;9.87;71.22
56689;BME280;42565;53.342;-1.534;2023-04-28T04:29:43;98167.20;;;10.66;70.46
56689;BME280;42565;53.342;-1.534;2023-04-28T04:32:10;98167.55;;;10.16;70.32
56689;BME280;42565;53.342;-1.534;2023-04-28T04:34:37;98169.02;;;9.90;71.33
56689;BME280;42565;53.342;-1.534;2023-04-28T04:37:04;98172.37;;;9.35;71.86
56689;BME280;42565;53.342;-1.534;2023-04-28T04:39:32;98171.95;;;9.83;71.37
56689;BME280;42565;53.342;-1.534;2023-04-28T04:41:58;98172.71;;;10.25;71.72
56689;BME280;42565;53.342;-1.534;2023-04-28T04:44:25;98165.13;;;10.08;71.46
56689;BME280;42565;53.342;-1.534;2023-04-28T04:46:52;98167.17;;;9.92;70.97
56689;BME280;42565;53.342;-1.534;2023-04-28T04:49:20;98166.78;;;10.14;71.21
56689;BME280;42565;53.342;-1.534;2023-04-28T04:51:47;98169.87;;;10.08;70.63
56689;BME280;42565;53.342;-1.534;2023-04-28T04:54:14;98170.91;;;9.71;71.71
56689;BME280;42565;53.342;-1.534;2023-04-28T04:56:41;98171.08;;;9.64;72.66
56689;BME280;42565;53.342;-1.534;2023-04-28T04:59:08;98171.67;;;9.90;71.31
56689;BME280;42565;53.342;-1.534;2023-04-28T05:01:36;98172.00;;;9.91;71.40
56689;BME280;42565;53.342;-1.534;2023-04-28T05:04:04;98180.54;;;9.73;71.85
56689;BME280;42565;53.342;-1.534;2023-04-28T05:06:30;98184.09;;;9.77;71.80
56689;BME280;42565;53.342;-1.534;2023-04-28T05:08:57;98185.15;;;10.62;70.85
56689;BME280;42565;53.342;-1.534;2023-04-28T05:11:24;98184.81;;;10.30;70.13
56689;BME280;42565;53.342;-1.534;2023-04-28T05:13:52;98186.38;;;9.82;71.24
56689;BME280;42565;53.342;-1.534;2023-04-28T05:16:19;98188.14;;;10.18;71.12
56689;BME280;42565;53.342;-1.534;2023-04-28T05:18:46;98187.62;;;10.34;71.16
56689;BME280;42565;53.342;-1.534;2023-04-28T05:21:13;98186.68;;;9.91;71.08
56689;BME280;42565;53.342;-1.534;2023-04-28T05:23:41;98185.85;;;9.98;71.51
56689;BME280;42565;53.342;-1.534;2023-04-28T05:26:08;98186.69;;;9.92;71.10
56689;BME280;42565;53.342;-1.534;2023-04-28T05:28:35;98192.08;;;10.22;70.56
56689;BME280;42565;53.342;-1.534;2023-04-28T05:31:03;98192.66;;;10.13;70.55
56689;BME280;42565;53.342;-1.534;2023-04-28T05:33:30;98199.02;;;10.41;70.50
56689;BME280;42565;53.342;-1.534;2023-04-28T05:35:57;98200.74;;;10.52;69.77
56689;BME280;42565;53.342;-1.534;2023-04-28T05:38:24;98205.79;;;10.60;69.60
56689;BME280;42565;53.342;-1.534;2023-04-28T05:40:51;98205.19;;;10.87;69.21
56689;BME280;42565;53.342;-1.534;2023-04-28T05:43:18;98207.09;;;10.33;70.29
56689;BME280;42565;53.342;-1.534;2023-04-28T05:45:45;98210.59;;;10.24;71.19
56689;BME280;42565;53.342;-1.534;2023-04-28T05:48:13;98213.43;;;10.39;70.57
56689;BME280;42565;53.342;-1.534;2023-04-28T05:50:40;98214.10;;;10.56;70.39
56689;BME280;42565;53.342;-1.534;2023-04-28T05:53:07;98211.23;;;10.40;69.97
56689;BME280;42565;53.342;-1.534;2023-04-28T05:55:34;98209.25;;;10.37;70.46
56689;BME280;42565;53.342;-1.534;2023-04-28T05:58:01;98208.19;;;10.34;70.89
56689;BME280;42565;53.342;-1.534;2023-04-28T06:00:28;98208.25;;;10.38;70.89
56689;BME280;42565;53.342;-1.534;2023-04-28T06:02:56;98206.23;;;10.39;71.13
56689;BME280;42565;53.342;-1.534;2023-04-28T06:05:23;98208.77;;;10.30;71.39
56689;BME280;42565;53.342;-1.534;2023-04-28T06:07:50;98213.22;;;10.20;72.11
56689;BME280;42565;53.342;-1.534;2023-04-28T06:10:18;98208.98;;;10.42;71.50
56689;BME280;42565;53.342;-1.534;2023-04-28T06:12:46;98205.57;;;10.17;71.96
56689;BME280;42565;53.342;-1.534;2023-04-28T06:15:13;98206.69;;;9.96;71.94
56689;BME280;42565;53.342;-1.534;2023-04-28T06:17:40;98210.29;;;10.14;72.23
56689;BME280;42565;53.342;-1.534;2023-04-28T06:20:08;98218.81;;;9.67;73.26
56689;BME280;42565;53.342;-1.534;2023-04-28T06:22:35;98224.63;;;9.30;76.46
56689;BME280;42565;53.342;-1.534;2023-04-28T06:25:04;98222.43;;;9.46;74.82
56689;BME280;42565;53.342;-1.534;2023-04-28T06:27:31;98221.77;;;9.98;73.56
56689;BME280;42565;53.342;-1.534;2023-04-28T06:29:59;98225.59;;;10.15;72.76
56689;BME280;42565;53.342;-1.534;2023-04-28T06:32:26;98228.28;;;9.91;73.92
56689;BME280;42565;53.342;-1.534;2023-04-28T06:34:53;98230.82;;;10.22;73.67
56689;BME280;42565;53.342;-1.534;2023-04-28T06:37:20;98233.08;;;10.08;73.64
56689;BME280;42565;53.342;-1.534;2023-04-28T06:39:47;98235.21;;;9.89;73.96
56689;BME280;42565;53.342;-1.534;2023-04-28T06:42:14;98236.98;;;9.99;73.17
56689;BME280;42565;53.342;-1.534;2023-04-28T06:44:42;98237.15;;;9.88;73.40
56689;BME280;42565;53.342;-1.534;2023-04-28T06:47:09;98239.37;;;10.12;72.32
56689;BME280;42565;53.342;-1.534;2023-04-28T06:49:36;98234.77;;;10.25;71.69
56689;BME280;42565;53.342;-1.534;2023-04-28T06:52:03;98229.90;;;10.51;71.38
56689;BME280;42565;53.342;-1.534;2023-04-28T06:54:31;98236.06;;;10.30;72.55
56689;BME280;42565;53.342;-1.534;2023-04-28T06:56:57;98238.15;;;10.51;72.00
56689;BME280;42565;53.342;-1.534;2023-04-28T06:59:25;98238.18;;;10.53;71.02
56689;BME280;42565;53.342;-1.534;2023-04-28T07:01:52;98240.61;;;9.94;73.44
56689;BME280;42565;53.342;-1.534;2023-04-28T07:04:19;98246.31;;;9.40;75.24
56689;BME280;42565;53.342;-1.534;2023-04-28T07:06:46;98244.81;;;10.07;75.15
56689;BME280;42565;53.342;-1.534;2023-04-28T07:09:13;98245.50;;;9.88;74.86
56689;BME280;42565;53.342;-1.534;2023-04-28T07:11:40;98246.35;;;10.19;74.07
56689;BME280;42565;53.342;-1.534;2023-04-28T07:14:07;98248.28;;;10.05;73.90
56689;BME280;42565;53.342;-1.534;2023-04-28T07:16:34;98248.07;;;10.73;73.15
56689;BME280;42565;53.342;-1.534;2023-04-28T07:19:02;98247.65;;;10.99;72.71
56689;BME280;42565;53.342;-1.534;2023-04-28T07:21:29;98249.81;;;10.82;71.87
56689;BME280;42565;53.342;-1.534;2023-04-28T07:23:56;98255.98;;;10.86;71.89
56689;BME280;42565;53.342;-1.534;2023-04-28T07:26:23;98263.65;;;10.33;73.08
56689;BME280;42565;53.342;-1.534;2023-04-28T07:28:50;98267.89;;;10.54;73.13
56689;BME280;42565;53.342;-1.534;2023-04-28T07:31:17;98271.21;;;9.79;74.41
56689;BME280;42565;53.342;-1.534;2023-04-28T07:33:45;98277.46;;;10.34;73.17
56689;BME280;42565;53.342;-1.534;2023-04-28T07:36:12;98279.24;;;10.49;73.07
56689;BME280;42565;53.342;-1.534;2023-04-28T07:38:40;98284.03;;;10.46;72.21
56689;BME280;42565;53.342;-1.534;2023-04-28T07:41:07;98291.81;;;10.19;72.91
56689;BME280;42565;53.342;-1.534;2023-04-28T07:43:33;98291.66;;;10.80;72.34
56689;BME280;42565;53.342;-1.534;2023-04-28T07:46:01;98294.24;;;10.79;72.98
56689;BME280;42565;53.342;-1.534;2023-04-28T07:48:28;98295.17;;;10.66;73.06
56689;BME280;42565;53.342;-1.534;2023-04-28T07:50:56;98296.36;;;10.83;72.78
56689;BME280;42565;53.342;-1.534;2023-04-28T07:53:23;98305.05;;;10.62;72.94
56689;BME280;42565;53.342;-1.534;2023-04-28T07:55:50;98303.08;;;10.54;73.43
56689;BME280;42565;53.342;-1.534;2023-04-28T07:58:17;98307.51;;;10.63;73.47
56689;BME280;42565;53.342;-1.534;2023-04-28T08:00:44;98309.13;;;11.13;72.40
56689;BME280;42565;53.342;-1.534;2023-04-28T08:03:11;98311.02;;;11.35;71.29
56689;BME280;42565;53.342;-1.534;2023-04-28T08:05:38;98313.12;;;11.51;70.95
56689;BME280;42565;53.342;-1.534;2023-04-28T08:08:06;98317.90;;;10.91;71.33
56689;BME280;42565;53.342;-1.534;2023-04-28T08:10:33;98320.36;;;10.98;72.58
56689;BME280;42565;53.342;-1.534;2023-04-28T08:13:01;98327.80;;;11.03;71.99
56689;BME280;42565;53.342;-1.534;2023-04-28T08:15:27;98325.88;;;11.04;72.11
56689;BME280;42565;53.342;-1.534;2023-04-28T08:17:54;98332.43;;;11.69;71.18
56689;BME280;42565;53.342;-1.534;2023-04-28T08:20:22;98334.75;;;11.72;70.75
56689;BME280;42565;53.342;-1.534;2023-04-28T08:22:49;98339.43;;;11.62;71.35
56689;BME280;42565;53.342;-1.534;2023-04-28T08:25:17;98346.75;;;11.76;70.44
56689;BME280;42565;53.342;-1.534;2023-04-28T08:27:44;98347.26;;;11.68;70.45
56689;BME280;42565;53.342;-1.534;2023-04-28T08:30:12;98354.16;;;11.69;70.67
56689;BME280;42565;53.342;-1.534;2023-04-28T08:32:39;98355.59;;;11.71;69.82
56689;BME280;42565;53.342;-1.534;2023-04-28T08:35:07;98357.57;;;10.92;71.55
56689;BME280;42565;53.342;-1.534;2023-04-28T08:37:33;98361.24;;;12.00;70.30
56689;BME280;42565;53.342;-1.534;2023-04-28T08:40:01;98367.44;;;11.46;70.14
56689;BME280;42565;53.342;-1.534;2023-04-28T08:42:29;98372.81;;;10.99;71.49
56689;BME280;42565;53.342;-1.534;2023-04-28T08:44:56;98373.93;;;11.04;72.34
56689;BME280;42565;53.342;-1.534;2023-04-28T08:47:25;98372.71;;;11.28;72.27
56689;BME280;42565;53.342;-1.534;2023-04-28T08:49:59;98374.00;;;11.33;71.33
56689;BME280;42565;53.342;-1.534;2023-04-28T08:52:28;98376.63;;;11.57;70.72
56689;BME280;42565;53.342;-1.534;2023-04-28T08:54:57;98382.13;;;11.40;71.06
56689;BME280;42565;53.342;-1.534;2023-04-28T08:57:26;98382.12;;;11.49;70.75
56689;BME280;42565;53.342;-1.534;2023-04-28T08:59:53;98382.89;;;11.46;71.46
56689;BME280;42565;53.342;-1.534;2023-04-28T09:02:21;98386.62;;;11.07;71.64
56689;BME280;42565;53.342;-1.534;2023-04-28T09:04:48;98388.37;;;11.31;71.52
56689;BME280;42565;53.342;-1.534;2023-04-28T09:07:16;98390.46;;;11.45;72.26
56689;BME280;42565;53.342;-1.534;2023-04-28T09:09:43;98392.60;;;11.37;71.97
56689;BME280;42565;53.342;-1.534;2023-04-28T09:12:10;98397.38;;;11.44;71.91
56689;BME280;42565;53.342;-1.534;2023-04-28T09:14:38;98397.69;;;11.81;70.85
56689;BME280;42565;53.342;-1.534;2023-04-28T09:17:10;98398.24;;;11.86;71.31
56689;BME280;42565;53.342;-1.534;2023-04-28T09:19:38;98401.54;;;11.83;71.27
56689;BME280;42565;53.342;-1.534;2023-04-28T09:22:06;98407.38;;;10.90;71.51
56689;BME280;42565;53.342;-1.534;2023-04-28T09:24:34;98408.37;;;11.61;71.80
56689;BME280;42565;53.342;-1.534;2023-04-28T09:27:02;98410.92;;;11.39;71.65
56689;BME280;42565;53.342;-1.534;2023-04-28T09:29:30;98411.63;;;11.28;71.84
56689;BME280;42565;53.342;-1.534;2023-04-28T09:32:15;98411.56;;;11.68;71.94
56689;BME280;42565;53.342;-1.534;2023-04-28T09:34:44;98417.24;;;11.58;72.46
56689;BME280;42565;53.342;-1.534;2023-04-28T09:37:15;98421.53;;;11.03;73.78
56689;BME280;42565;53.342;-1.534;2023-04-28T09:39:44;98420.55;;;11.73;72.60
56689;BME280;42565;53.342;-1.534;2023-04-28T09:42:30;98424.39;;;11.62;71.79
56689;BME280;42565;53.342;-1.534;2023-04-28T09:44:57;98423.94;;;11.75;73.22
56689;BME280;42565;53.342;-1.534;2023-04-28T09:47:24;98424.21;;;11.74;73.44
56689;BME280;42565;53.342;-1.534;2023-04-28T09:49:53;98426.88;;;12.07;73.26
56689;BME280;42565;53.342;-1.534;2023-04-28T09:52:20;98429.13;;;11.88;73.26
56689;BME280;42565;53.342;-1.534;2023-04-28T09:54:50;98434.58;;;12.55;73.03
56689;BME280;42565;53.342;-1.534;2023-04-28T09:57:17;98436.32;;;12.24;71.69
56689;BME280;42565;53.342;-1.534;2023-04-28T09:59:46;98437.46;;;11.72;74.24
56689;BME280;42565;53.342;-1.534;2023-04-28T10:02:15;98441.19;;;12.01;73.89
56689;BME280;42565;53.342;-1.534;2023-04-28T10:04:44;98445.31;;;12.19;72.73
56689;BME280;42565;53.342;-1.534;2023-04-28T10:07:12;98449.93;;;11.85;72.74
56689;BME280;42565;53.342;-1.534;2023-04-28T10:09:39;98453.34;;;11.81;75.01
56689;BME280;42565;53.342;-1.534;2023-04-28T10:12:07;98454.44;;;11.43;74.99
56689;BME280;42565;53.342;-1.534;2023-04-28T10:14:36;98457.79;;;12.17;74.02
56689;BME280;42565;53.342;-1.534;2023-04-28T10:17:04;98459.24;;;12.08;73.70
56689;BME280;42565;53.342;-1.534;2023-04-28T10:19:31;98464.10;;;12.66;72.61
56689;BME280;42565;53.342;-1.534;2023-04-28T10:22:20;98472.44;;;12.78;70.66
56689;BME280;42565;53.342;-1.534;2023-04-28T10:25:11;98478.14;;;12.74;69.84
56689;BME280;42565;53.342;-1.534;2023-04-28T10:27:41;98481.72;;;12.90;71.05
56689;BME280;42565;53.342;-1.534;2023-04-28T10:30:10;98482.44;;;12.16;69.96
56689;BME280;42565;53.342;-1.534;2023-04-28T10:32:37;98486.51;;;12.85;68.59
56689;BME280;42565;53.342;-1.534;2023-04-28T10:35:44;98488.48;;;12.97;68.02
56689;BME280;42565;53.342;-1.534;2023-04-28T10:38:13;98490.52;;;12.59;68.69
56689;BME280;42565;53.342;-1.534;2023-04-28T10:40:41;98494.27;;;12.56;67.51
56689;BME280;42565;53.342;-1.534;2023-04-28T10:43:09;98498.46;;;12.62;67.37
56689;BME280;42565;53.342;-1.534;2023-04-28T10:46:09;98503.07;;;12.48;68.19
56689;BME280;42565;53.342;-1.534;2023-04-28T10:49:09;98505.83;;;12.66;68.09
56689;BME280;42565;53.342;-1.534;2023-04-28T10:51:36;98508.41;;;13.08;68.16
56689;BME280;42565;53.342;-1.534;2023-04-28T10:54:18;98513.93;;;12.77;67.50
56689;BME280;42565;53.342;-1.534;2023-04-28T10:58:29;98518.04;;;12.52;68.18
56689;BME280;42565;53.342;-1.534;2023-04-28T11:01:23;98526.53;;;12.64;68.21
56689;BME280;42565;53.342;-1.534;2023-04-28T11:03:51;98529.33;;;12.37;67.73
56689;BME280;42565;53.342;-1.534;2023-04-28T11:06:19;98530.91;;;12.06;68.06
56689;BME280;42565;53.342;-1.534;2023-04-28T11:08:47;98532.63;;;12.27;69.04
56689;BME280;42565;53.342;-1.534;2023-04-28T11:11:19;98537.17;;;12.17;67.86
56689;BME280;42565;53.342;-1.534;2023-04-28T11:13:47;98536.39;;;12.46;67.01
56689;BME280;42565;53.342;-1.534;2023-04-28T11:16:16;98538.99;;;12.67;68.38
56689;BME280;42565;53.342;-1.534;2023-04-28T11:18:55;98543.58;;;12.16;69.06
56689;BME280;42565;53.342;-1.534;2023-04-28T11:21:23;98541.03;;;12.22;68.40
56689;BME280;42565;53.342;-1.534;2023-04-28T11:23:51;98545.93;;;12.15;68.88
56689;BME280;42565;53.342;-1.534;2023-04-28T11:26:19;98547.11;;;11.66;68.09
56689;BME280;42565;53.342;-1.534;2023-04-28T11:28:49;98551.79;;;11.98;68.75
56689;BME280;42565;53.342;-1.534;2023-04-28T11:31:18;98553.97;;;11.81;69.24
56689;BME280;42565;53.342;-1.534;2023-04-28T11:33:46;98557.05;;;11.90;68.54
56689;BME280;42565;53.342;-1.534;2023-04-28T11:36:25;98560.54;;;11.86;69.56
56689;BME280;42565;53.342;-1.534;2023-04-28T11:38:53;98568.00;;;11.62;69.00
56689;BME280;42565;53.342;-1.534;2023-04-28T11:41:23;98568.07;;;11.97;69.34
56689;BME280;42565;53.342;-1.534;2023-04-28T11:43:50;98573.11;;;11.72;69.58
56689;BME280;42565;53.342;-1.534;2023-04-28T11:46:19;98576.06;;;11.63;68.23
56689;BME280;42565;53.342;-1.534;2023-04-28T11:48:46;98583.91;;;11.95;69.82
56689;BME280;42565;53.342;-1.534;2023-04-28T11:51:46;98585.30;;;11.02;69.86
56689;BME280;42565;53.342;-1.534;2023-04-28T11:54:13;98588.76;;;11.57;69.35
56689;BME280;42565;53.342;-1.534;2023-04-28T11:56:41;98594.02;;;12.15;68.94
56689;BME280;42565;53.342;-1.534;2023-04-28T11:59:10;98597.05;;;11.38;69.38
56689;BME280;42565;53.342;-1.534;2023-04-28T12:01:46;98598.54;;;11.62;69.13
56689;BME280;42565;53.342;-1.534;2023-04-28T12:04:25;98603.19;;;12.35;69.18
56689;BME280;42565;53.342;-1.534;2023-04-28T12:06:58;98610.77;;;11.62;69.62
56689;BME280;42565;53.342;-1.534;2023-04-28T12:09:26;98617.31;;;11.89;70.10
56689;BME280;42565;53.342;-1.534;2023-04-28T12:11:56;98623.07;;;12.01;69.93
56689;BME280;42565;53.342;-1.534;2023-04-28T12:14:23;98631.15;;;12.11;69.25
56689;BME280;42565;53.342;-1.534;2023-04-28T12:16:51;98639.32;;;11.93;69.76
56689;BME280;42565;53.342;-1.534;2023-04-28T12:19:18;98643.16;;;11.96;69.17
56689;BME280;42565;53.342;-1.534;2023-04-28T12:22:03;98649.58;;;11.91;69.28
56689;BME280;42565;53.342;-1.534;2023-04-28T12:24:31;98652.65;;;11.77;69.54
56689;BME280;42565;53.342;-1.534;2023-04-28T12:27:16;98657.27;;;12.51;69.18
56689;BME280;42565;53.342;-1.534;2023-04-28T12:29:44;98656.84;;;12.40;67.91
56689;BME280;42565;53.342;-1.534;2023-04-28T12:32:11;98658.79;;;12.40;66.21
56689;BME280;42565;53.342;-1.534;2023-04-28T12:34:40;98660.51;;;12.61;66.06
56689;BME280;42565;53.342;-1.534;2023-04-28T12:37:07;98663.81;;;12.37;66.37
56689;BME280;42565;53.342;-1.534;2023-04-28T12:39:35;98667.35;;;12.17;68.13
56689;BME280;42565;53.342;-1.534;2023-04-28T12:42:03;98669.81;;;11.98;67.71
56689;BME280;42565;53.342;-1.534;2023-04-28T12:44:32;98674.63;;;12.33;68.43
56689;BME280;42565;53.342;-1.534;2023-04-28T12:46:59;98680.01;;;12.24;68.56
56689;BME280;42565;53.342;-1.534;2023-04-28T12:49:27;98681.92;;;11.95;68.46
56689;BME280;42565;53.342;-1.534;2023-04-28T12:51:54;98689.27;;;12.00;69.39
56689;BME280;42565;53.342;-1.534;2023-04-28T12:54:21;98693.38;;;11.93;68.35
56689;BME280;42565;53.342;-1.534;2023-04-28T12:56:48;98693.61;;;11.28;70.40
56689;BME280;42565;53.342;-1.534;2023-04-28T12:59:15;98694.70;;;11.26;70.11
56689;BME280;42565;53.342;-1.534;2023-04-28T13:01:42;98701.92;;;11.64;70.28
56689;BME280;42565;53.342;-1.534;2023-04-28T13:04:08;98704.62;;;11.42;70.90